createdAt,value
2018-02-18T00:01:28.759Z,77.40
2018-02-18T00:03:57.077Z,77.44
2018-02-18T00:06:25.389Z,77.38
2018-02-18T00:08:53.705Z,77.49
2018-02-18T00:11:22.787Z,77.46
2018-02-18T00:13:54.535Z,77.27
2018-02-18T00:16:22.867Z,77.52
2018-02-18T00:18:51.874Z,77.46
2018-02-18T00:21:20.205Z,77.44
2018-02-18T00:23:48.518Z,77.62
2018-02-18T00:26:17.601Z,77.53
2018-02-18T00:28:46.702Z,77.31
2018-02-18T00:31:15.769Z,77.37
2018-02-18T00:33:44.132Z,77.46
2018-02-18T00:36:12.631Z,77.49
2018-02-18T00:38:40.999Z,77.67
2018-02-18T00:41:09.341Z,77.76
2018-02-18T00:43:38.465Z,77.83
2018-02-18T00:46:07.407Z,77.71
2018-02-18T00:48:35.696Z,77.49
2018-02-18T00:51:04.866Z,77.48
2018-02-18T00:53:33.177Z,77.78
2018-02-18T00:56:01.581Z,78.14
2018-02-18T00:58:30.754Z,78.18
2018-02-18T01:00:59.061Z,77.84
2018-02-18T01:03:28.345Z,77.98
2018-02-18T01:05:57.440Z,77.95
2018-02-18T01:08:25.843Z,77.77
2018-02-18T01:10:54.163Z,77.90
2018-02-18T01:13:22.488Z,78.24
2018-02-18T01:15:51.585Z,78.26
2018-02-18T01:18:20.664Z,78.06
2018-02-18T01:20:48.974Z,78.21
2018-02-18T01:23:18.169Z,78.09
2018-02-18T01:25:49.033Z,78.22
2018-02-18T01:28:17.380Z,78.17
2018-02-18T01:30:45.677Z,77.86
2018-02-18T01:33:14.784Z,78.27
2018-02-18T01:35:43.893Z,78.64
2018-02-18T01:38:12.235Z,78.62
2018-02-18T01:40:40.548Z,78.45
2018-02-18T01:43:09.737Z,78.36
2018-02-18T01:45:38.857Z,78.52
2018-02-18T01:48:07.176Z,78.73
2018-02-18T01:50:38.103Z,78.30
2018-02-18T01:53:06.435Z,78.45
2018-02-18T01:55:35.497Z,78.42
2018-02-18T01:58:03.849Z,78.20
2018-02-18T02:00:32.169Z,78.46
2018-02-18T02:03:00.522Z,78.29
2018-02-18T02:05:28.934Z,78.74
2018-02-18T02:07:58.018Z,78.68
2018-02-18T02:10:26.361Z,78.56
2018-02-18T02:12:54.674Z,78.76
2018-02-18T02:15:23.097Z,78.75
2018-02-18T02:17:52.186Z,78.57
2018-02-18T02:20:21.295Z,78.40
2018-02-18T02:22:49.637Z,78.70
2018-02-18T02:25:18.001Z,78.81
2018-02-18T02:27:46.299Z,79.11
2018-02-18T02:30:14.728Z,78.94
2018-02-18T02:32:43.853Z,78.59
2018-02-18T02:35:12.176Z,78.76
2018-02-18T02:37:40.521Z,78.44
2018-02-18T02:40:08.861Z,78.62
2018-02-18T02:42:38.016Z,78.99
2018-02-18T02:45:06.348Z,79.46
2018-02-18T02:47:35.423Z,79.11
2018-02-18T02:50:03.762Z,79.29
2018-02-18T02:52:32.081Z,79.21
2018-02-18T02:55:01.036Z,79.32
2018-02-18T02:57:29.428Z,79.52
2018-02-18T02:59:57.732Z,79.35
2018-02-18T03:02:26.107Z,78.94
2018-02-18T03:04:54.439Z,78.69
2018-02-18T03:07:23.547Z,78.61
2018-02-18T03:09:52.647Z,78.83
2018-02-18T03:12:20.984Z,79.06
2018-02-18T03:14:49.339Z,79.54
2018-02-18T03:17:17.663Z,79.22
2018-02-18T03:19:46.010Z,78.90
2018-02-18T03:22:14.347Z,79.77
2018-02-18T03:24:43.425Z,79.46
2018-02-18T03:27:11.763Z,79.15
2018-02-18T03:29:40.091Z,79.15
2018-02-18T03:32:09.201Z,79.45
2018-02-18T03:34:38.279Z,79.34
2018-02-18T03:37:06.615Z,79.33
2018-02-18T03:39:34.935Z,79.06
2018-02-18T03:42:03.289Z,79.10
2018-02-18T03:44:31.682Z,79.26
2018-02-18T03:47:00.021Z,78.87
2018-02-18T03:49:28.387Z,78.81
2018-02-18T03:51:57.485Z,78.87
2018-02-18T03:54:25.826Z,79.14
2018-02-18T03:56:54.155Z,79.18
2018-02-18T03:59:22.471Z,79.84
2018-02-18T04:01:50.796Z,80.14
2018-02-18T04:04:19.895Z,79.88
2018-02-18T04:06:49.020Z,79.80
2018-02-18T04:09:17.468Z,80.33
2018-02-18T04:11:45.751Z,80.68
2018-02-18T04:14:14.101Z,80.61
2018-02-18T04:16:42.476Z,80.37
2018-02-18T04:19:10.810Z,80.20
2018-02-18T04:21:39.891Z,80.52
2018-02-18T04:24:08.203Z,80.41
2018-02-18T04:26:36.549Z,80.25
2018-02-18T04:29:04.882Z,80.47
2018-02-18T04:31:33.207Z,80.52
2018-02-18T04:34:01.529Z,80.66
2018-02-18T04:36:29.944Z,80.52
2018-02-18T04:38:58.427Z,80.51
2018-02-18T04:41:26.749Z,80.71
2018-02-18T04:43:55.071Z,80.21
2018-02-18T04:46:23.403Z,80.64
2018-02-18T04:48:51.732Z,80.30
2018-02-18T04:51:20.070Z,80.00
2018-02-18T04:53:48.411Z,80.33
2018-02-18T04:56:17.478Z,80.57
2018-02-18T04:58:46.306Z,81.14
2018-02-18T05:01:14.656Z,81.19
2018-02-18T05:03:43.004Z,80.83
2018-02-18T05:06:11.348Z,80.47
2018-02-18T05:08:39.712Z,80.45
2018-02-18T05:11:08.027Z,80.52
2018-02-18T05:13:36.381Z,80.59
2018-02-18T05:16:04.703Z,80.55
2018-02-18T05:18:33.031Z,80.84
2018-02-18T05:21:01.516Z,81.10
2018-02-18T05:23:29.833Z,81.08
2018-02-18T05:25:58.209Z,81.12
2018-02-18T05:28:26.521Z,81.10
2018-02-18T05:30:54.914Z,81.48
2018-02-18T05:33:24.104Z,82.04
2018-02-18T05:35:52.452Z,81.78
2018-02-18T05:38:20.805Z,81.74
2018-02-18T05:40:49.232Z,81.31
2018-02-18T05:43:17.531Z,80.92
2018-02-18T05:45:46.639Z,81.21
2018-02-18T05:48:15.724Z,81.44
2018-02-18T05:50:44.271Z,81.89
2018-02-18T05:53:12.618Z,81.94
2018-02-18T05:55:41.761Z,81.41
2018-02-18T05:58:10.156Z,81.83
2018-02-18T06:00:38.490Z,81.51
2018-02-18T06:03:06.846Z,81.53
2018-02-18T06:05:35.161Z,81.90
2018-02-18T06:08:03.478Z,81.92
2018-02-18T06:10:31.864Z,81.39
2018-02-18T06:13:00.213Z,81.36
2018-02-18T06:15:28.554Z,81.55
2018-02-18T06:17:57.646Z,82.02
2018-02-18T06:20:26.007Z,82.05
2018-02-18T06:22:54.348Z,82.02
2018-02-18T06:25:22.679Z,81.99
2018-02-18T06:27:51.121Z,81.58
2018-02-18T06:30:19.464Z,81.78
2018-02-18T06:32:48.563Z,81.92
2018-02-18T06:35:17.673Z,81.67
2018-02-18T06:37:46.019Z,81.18
2018-02-18T06:40:14.339Z,81.10
2018-02-18T06:42:42.653Z,81.57
2018-02-18T06:45:10.974Z,81.29
2018-02-18T06:47:39.292Z,80.94
2018-02-18T06:50:07.703Z,81.12
2018-02-18T06:52:36.350Z,81.11
2018-02-18T06:55:04.660Z,81.29
2018-02-18T06:57:33.039Z,81.10
2018-02-18T07:00:01.372Z,81.12
2018-02-18T07:02:29.699Z,81.11
2018-02-18T07:04:58.039Z,80.99
2018-02-18T07:07:27.612Z,81.13
2018-02-18T07:09:55.968Z,81.38
2018-02-18T07:12:24.272Z,81.40
2018-02-18T07:14:52.609Z,81.74
2018-02-18T07:17:20.924Z,81.68
2018-02-18T07:19:49.274Z,81.18
2018-02-18T07:22:17.652Z,81.26
2018-02-18T07:24:46.877Z,81.12
2018-02-18T07:27:15.178Z,80.71
2018-02-18T07:29:43.504Z,80.77
2018-02-18T07:32:12.600Z,80.21
2018-02-18T07:34:40.924Z,80.44
2018-02-18T07:37:09.299Z,80.49
2018-02-18T07:39:37.611Z,80.25
2018-02-18T07:42:06.097Z,80.28
2018-02-18T07:44:34.456Z,79.72
2018-02-18T07:47:02.780Z,79.78
2018-02-18T07:49:31.110Z,80.02
2018-02-18T07:51:59.434Z,80.18
2018-02-18T07:54:27.964Z,80.34
2018-02-18T07:56:56.392Z,80.18
2018-02-18T07:59:24.698Z,79.62
2018-02-18T08:01:53.005Z,79.38
2018-02-18T08:04:21.326Z,79.49
2018-02-18T08:06:49.641Z,79.45
2018-02-18T08:09:18.737Z,79.23
2018-02-18T08:11:47.049Z,78.79
2018-02-18T08:14:15.370Z,78.78
2018-02-18T08:16:43.714Z,78.84
2018-02-18T08:19:12.068Z,78.44
2018-02-18T08:21:41.158Z,78.34
2018-02-18T08:24:09.474Z,78.24
2018-02-18T08:26:37.795Z,77.74
2018-02-18T08:29:06.118Z,77.66
2018-02-18T08:31:35.195Z,77.77
2018-02-18T08:34:03.523Z,77.69
2018-02-18T08:36:31.828Z,77.42
2018-02-18T08:39:00.141Z,77.39
2018-02-18T08:41:29.020Z,77.30
2018-02-18T08:43:57.493Z,77.41
2018-02-18T08:46:25.803Z,77.17
2018-02-18T08:48:54.131Z,77.05
2018-02-18T08:51:22.468Z,77.04
2018-02-18T08:53:50.804Z,76.87
2018-02-18T08:56:19.228Z,76.79
2018-02-18T08:58:47.579Z,76.92
2018-02-18T09:01:15.919Z,77.01
2018-02-18T09:03:45.016Z,76.90
2018-02-18T09:06:13.345Z,76.79
2018-02-18T09:08:41.662Z,76.71
2018-02-18T09:11:10.773Z,76.50
2018-02-18T09:13:39.845Z,76.24
2018-02-18T09:16:08.185Z,75.72
2018-02-18T09:18:36.483Z,75.54
2018-02-18T09:21:04.794Z,75.13
2018-02-18T09:23:33.112Z,74.95
2018-02-18T09:26:02.219Z,74.77
2018-02-18T09:28:30.561Z,74.54
2018-02-18T09:30:58.887Z,74.43
2018-02-18T09:33:27.213Z,73.84
2018-02-18T09:35:55.531Z,73.69
2018-02-18T09:38:23.856Z,73.58
2018-02-18T09:40:52.171Z,73.36
2018-02-18T09:43:21.434Z,73.20
2018-02-18T09:45:49.789Z,73.13
2018-02-18T09:50:26.499Z,73.29
